sensor_id;sensor_type;location;lat;lon;timestamp;P1;durP1;ratioP1;P2;durP2;ratioP2
5343;SDS011;2694;48.954;8.928;2024-02-23T00:01:33;8.50;;;0.80;;
5343;SDS011;2694;48.954;8.928;2024-02-23T00:04:00;1.77;;;0.30;;
5343;SDS011;2694;48.954;8.928;2024-02-23T00:06:29;2.88;;;0.40;;
5343;SDS011;2694;48.954;8.928;2024-02-23T00:08:55;8.40;;;2.00;;
5343;SDS011;2694;48.954;8.928;2024-02-23T00:11:23;2.30;;;0.50;;
5343;SDS011;2694;48.954;8.928;2024-02-23T00:13:50;1.90;;;0.60;;
5343;SDS011;2694;48.954;8.928;2024-02-23T00:16:17;2.10;;;0.40;;
5343;SDS011;2694;48.954;8.928;2024-02-23T00:18:44;4.88;;;0.70;;
5343;SDS011;2694;48.954;8.928;2024-02-23T00:21:11;2.60;;;0.40;;
5343;SDS011;2694;48.954;8.928;2024-02-23T00:23:40;4.80;;;0.40;;
5343;SDS011;2694;48.954;8.928;2024-02-23T00:26:07;3.50;;;0.50;;
5343;SDS011;2694;48.954;8.928;2024-02-23T00:28:33;2.30;;;0.50;;
5343;SDS011;2694;48.954;8.928;2024-02-23T00:31:00;3.47;;;0.50;;
5343;SDS011;2694;48.954;8.928;2024-02-23T00:33:27;4.20;;;0.40;;
5343;SDS011;2694;48.954;8.928;2024-02-23T00:35:54;3.80;;;0.60;;
5343;SDS011;2694;48.954;8.928;2024-02-23T00:38:21;4.45;;;0.95;;
5343;SDS011;2694;48.954;8.928;2024-02-23T00:40:49;2.67;;;0.43;;
5343;SDS011;2694;48.954;8.928;2024-02-23T00:43:16;8.07;;;0.70;;
5343;SDS011;2694;48.954;8.928;2024-02-23T00:45:45;1.73;;;0.40;;
5343;SDS011;2694;48.954;8.928;2024-02-23T00:48:12;3.80;;;0.55;;
5343;SDS011;2694;48.954;8.928;2024-02-23T00:50:38;3.67;;;0.50;;
5343;SDS011;2694;48.954;8.928;2024-02-23T00:53:05;2.45;;;0.40;;
5343;SDS011;2694;48.954;8.928;2024-02-23T00:55:32;2.70;;;0.80;;
5343;SDS011;2694;48.954;8.928;2024-02-23T00:58:00;3.15;;;0.40;;
5343;SDS011;2694;48.954;8.928;2024-02-23T01:00:28;1.15;;;0.50;;
5343;SDS011;2694;48.954;8.928;2024-02-23T01:02:55;3.42;;;0.50;;
5343;SDS011;2694;48.954;8.928;2024-02-23T01:05:24;2.92;;;0.45;;
5343;SDS011;2694;48.954;8.928;2024-02-23T01:07:51;5.25;;;1.10;;
5343;SDS011;2694;48.954;8.928;2024-02-23T01:10:18;2.72;;;0.40;;
5343;SDS011;2694;48.954;8.928;2024-02-23T01:12:45;3.55;;;0.52;;
5343;SDS011;2694;48.954;8.928;2024-02-23T01:15:13;3.63;;;0.68;;
5343;SDS011;2694;48.954;8.928;2024-02-23T01:17:40;9.48;;;1.30;;
5343;SDS011;2694;48.954;8.928;2024-02-23T01:20:07;4.22;;;0.70;;
5343;SDS011;2694;48.954;8.928;2024-02-23T01:22:35;4.40;;;0.77;;
5343;SDS011;2694;48.954;8.928;2024-02-23T01:25:02;4.88;;;0.60;;
5343;SDS011;2694;48.954;8.928;2024-02-23T01:27:30;2.80;;;0.60;;
5343;SDS011;2694;48.954;8.928;2024-02-23T01:29:56;3.67;;;0.60;;
5343;SDS011;2694;48.954;8.928;2024-02-23T01:32:25;4.72;;;0.60;;
5343;SDS011;2694;48.954;8.928;2024-02-23T01:34:51;4.60;;;0.60;;
5343;SDS011;2694;48.954;8.928;2024-02-23T01:37:18;1.67;;;0.47;;
5343;SDS011;2694;48.954;8.928;2024-02-23T01:39:45;2.75;;;0.70;;
5343;SDS011;2694;48.954;8.928;2024-02-23T01:42:12;3.83;;;0.50;;
5343;SDS011;2694;48.954;8.928;2024-02-23T01:44:39;4.20;;;0.80;;
5343;SDS011;2694;48.954;8.928;2024-02-23T01:47:06;5.35;;;0.77;;
5343;SDS011;2694;48.954;8.928;2024-02-23T01:49:34;3.00;;;0.70;;
5343;SDS011;2694;48.954;8.928;2024-02-23T01:52:01;3.83;;;0.60;;
5343;SDS011;2694;48.954;8.928;2024-02-23T01:54:29;4.30;;;0.68;;
5343;SDS011;2694;48.954;8.928;2024-02-23T01:56:57;5.20;;;0.88;;
5343;SDS011;2694;48.954;8.928;2024-02-23T01:59:25;2.17;;;0.40;;
5343;SDS011;2694;48.954;8.928;2024-02-23T02:01:52;6.07;;;0.80;;
5343;SDS011;2694;48.954;8.928;2024-02-23T02:04:20;3.10;;;0.40;;
5343;SDS011;2694;48.954;8.928;2024-02-23T02:06:48;2.65;;;0.50;;
5343;SDS011;2694;48.954;8.928;2024-02-23T02:09:15;6.20;;;0.50;;
5343;SDS011;2694;48.954;8.928;2024-02-23T02:11:45;1.58;;;0.50;;
5343;SDS011;2694;48.954;8.928;2024-02-23T02:14:13;2.05;;;0.40;;
5343;SDS011;2694;48.954;8.928;2024-02-23T02:16:39;3.00;;;0.60;;
5343;SDS011;2694;48.954;8.928;2024-02-23T02:19:07;2.15;;;0.40;;
5343;SDS011;2694;48.954;8.928;2024-02-23T02:21:34;4.50;;;0.70;;
5343;SDS011;2694;48.954;8.928;2024-02-23T02:24:03;2.60;;;0.40;;
5343;SDS011;2694;48.954;8.928;2024-02-23T02:26:31;1.52;;;0.38;;
5343;SDS011;2694;48.954;8.928;2024-02-23T02:28:57;2.28;;;0.30;;
5343;SDS011;2694;48.954;8.928;2024-02-23T02:31:24;1.13;;;0.30;;
5343;SDS011;2694;48.954;8.928;2024-02-23T02:33:51;3.30;;;0.50;;
5343;SDS011;2694;48.954;8.928;2024-02-23T02:36:18;5.03;;;1.17;;
5343;SDS011;2694;48.954;8.928;2024-02-23T02:38:45;2.25;;;0.50;;
5343;SDS011;2694;48.954;8.928;2024-02-23T02:41:13;7.38;;;0.65;;
5343;SDS011;2694;48.954;8.928;2024-02-23T02:43:42;5.10;;;0.50;;
5343;SDS011;2694;48.954;8.928;2024-02-23T02:46:09;3.50;;;0.60;;
5343;SDS011;2694;48.954;8.928;2024-02-23T02:48:36;9.63;;;3.38;;
5343;SDS011;2694;48.954;8.928;2024-02-23T02:51:03;2.65;;;0.93;;
5343;SDS011;2694;48.954;8.928;2024-02-23T02:53:30;1.63;;;0.50;;
5343;SDS011;2694;48.954;8.928;2024-02-23T02:55:57;1.73;;;0.40;;
5343;SDS011;2694;48.954;8.928;2024-02-23T02:58:25;4.35;;;0.40;;
5343;SDS011;2694;48.954;8.928;2024-02-23T03:00:52;1.00;;;0.30;;
5343;SDS011;2694;48.954;8.928;2024-02-23T03:03:19;1.90;;;0.40;;
5343;SDS011;2694;48.954;8.928;2024-02-23T03:05:47;2.00;;;0.40;;
5343;SDS011;2694;48.954;8.928;2024-02-23T03:08:14;1.30;;;0.40;;
5343;SDS011;2694;48.954;8.928;2024-02-23T03:10:41;1.35;;;0.50;;
5343;SDS011;2694;48.954;8.928;2024-02-23T03:13:08;2.20;;;0.60;;
5343;SDS011;2694;48.954;8.928;2024-02-23T03:15:36;1.67;;;0.35;;
5343;SDS011;2694;48.954;8.928;2024-02-23T03:18:03;2.75;;;0.57;;
5343;SDS011;2694;48.954;8.928;2024-02-23T03:20:30;1.27;;;0.40;;
5343;SDS011;2694;48.954;8.928;2024-02-23T03:22:56;1.70;;;0.40;;
5343;SDS011;2694;48.954;8.928;2024-02-23T03:25:23;1.45;;;0.40;;
5343;SDS011;2694;48.954;8.928;2024-02-23T03:27:50;3.17;;;0.50;;
5343;SDS011;2694;48.954;8.928;2024-02-23T03:30:17;3.50;;;0.30;;
5343;SDS011;2694;48.954;8.928;2024-02-23T03:32:46;3.10;;;0.40;;
5343;SDS011;2694;48.954;8.928;2024-02-23T03:35:12;2.17;;;0.40;;
5343;SDS011;2694;48.954;8.928;2024-02-23T03:37:39;3.53;;;0.63;;
5343;SDS011;2694;48.954;8.928;2024-02-23T03:40:07;2.58;;;0.50;;
5343;SDS011;2694;48.954;8.928;2024-02-23T03:42:35;2.50;;;0.40;;
5343;SDS011;2694;48.954;8.928;2024-02-23T03:45:02;2.50;;;0.40;;
5343;SDS011;2694;48.954;8.928;2024-02-23T03:47:30;2.05;;;0.40;;
5343;SDS011;2694;48.954;8.928;2024-02-23T03:49:58;4.70;;;0.38;;
5343;SDS011;2694;48.954;8.928;2024-02-23T03:52:25;1.52;;;0.32;;
5343;SDS011;2694;48.954;8.928;2024-02-23T03:54:52;1.80;;;0.30;;
5343;SDS011;2694;48.954;8.928;2024-02-23T03:57:20;2.85;;;0.40;;
5343;SDS011;2694;48.954;8.928;2024-02-23T03:59:53;1.40;;;0.40;;
5343;SDS011;2694;48.954;8.928;2024-02-23T04:02:20;3.78;;;0.50;;
5343;SDS011;2694;48.954;8.928;2024-02-23T04:04:47;2.88;;;0.75;;
5343;SDS011;2694;48.954;8.928;2024-02-23T04:07:15;5.15;;;0.50;;
5343;SDS011;2694;48.954;8.928;2024-02-23T04:09:42;2.63;;;0.50;;
5343;SDS011;2694;48.954;8.928;2024-02-23T04:12:10;3.97;;;0.70;;
5343;SDS011;2694;48.954;8.928;2024-02-23T04:14:37;1.23;;;0.37;;
5343;SDS011;2694;48.954;8.928;2024-02-23T04:17:05;4.90;;;0.40;;
5343;SDS011;2694;48.954;8.928;2024-02-23T04:19:32;2.60;;;0.60;;
5343;SDS011;2694;48.954;8.928;2024-02-23T04:21:59;3.85;;;0.60;;
5343;SDS011;2694;48.954;8.928;2024-02-23T04:24:27;5.55;;;0.70;;
5343;SDS011;2694;48.954;8.928;2024-02-23T04:26:54;4.88;;;0.57;;
5343;SDS011;2694;48.954;8.928;2024-02-23T04:29:21;2.92;;;0.50;;
5343;SDS011;2694;48.954;8.928;2024-02-23T04:31:48;4.60;;;0.70;;
5343;SDS011;2694;48.954;8.928;2024-02-23T04:34:14;2.42;;;0.60;;
5343;SDS011;2694;48.954;8.928;2024-02-23T04:36:42;2.80;;;0.60;;
5343;SDS011;2694;48.954;8.928;2024-02-23T04:39:09;3.40;;;0.60;;
5343;SDS011;2694;48.954;8.928;2024-02-23T04:41:37;4.60;;;0.70;;
5343;SDS011;2694;48.954;8.928;2024-02-23T04:44:04;5.25;;;0.90;;
5343;SDS011;2694;48.954;8.928;2024-02-23T04:46:31;3.22;;;0.50;;
5343;SDS011;2694;48.954;8.928;2024-02-23T04:48:59;3.30;;;0.60;;
5343;SDS011;2694;48.954;8.928;2024-02-23T04:51:26;5.80;;;0.80;;
5343;SDS011;2694;48.954;8.928;2024-02-23T04:53:53;3.15;;;0.65;;
5343;SDS011;2694;48.954;8.928;2024-02-23T04:56:20;2.72;;;0.50;;
5343;SDS011;2694;48.954;8.928;2024-02-23T04:58:48;2.63;;;0.80;;
5343;SDS011;2694;48.954;8.928;2024-02-23T05:01:15;5.13;;;0.68;;
5343;SDS011;2694;48.954;8.928;2024-02-23T05:03:41;3.40;;;0.60;;
5343;SDS011;2694;48.954;8.928;2024-02-23T05:06:08;2.38;;;0.50;;
5343;SDS011;2694;48.954;8.928;2024-02-23T05:08:35;5.18;;;0.40;;
5343;SDS011;2694;48.954;8.928;2024-02-23T05:11:02;4.22;;;0.40;;
5343;SDS011;2694;48.954;8.928;2024-02-23T05:13:29;3.42;;;0.50;;
5343;SDS011;2694;48.954;8.928;2024-02-23T05:15:57;3.80;;;0.40;;
5343;SDS011;2694;48.954;8.928;2024-02-23T05:18:24;2.10;;;0.32;;
5343;SDS011;2694;48.954;8.928;2024-02-23T05:20:51;3.50;;;0.70;;
5343;SDS011;2694;48.954;8.928;2024-02-23T05:23:18;3.70;;;0.50;;
5343;SDS011;2694;48.954;8.928;2024-02-23T05:25:45;2.10;;;0.40;;
5343;SDS011;2694;48.954;8.928;2024-02-23T05:28:12;2.03;;;0.43;;
5343;SDS011;2694;48.954;8.928;2024-02-23T05:30:38;2.50;;;0.60;;
5343;SDS011;2694;48.954;8.928;2024-02-23T05:33:07;3.38;;;0.50;;
5343;SDS011;2694;48.954;8.928;2024-02-23T05:35:33;1.52;;;0.40;;
5343;SDS011;2694;48.954;8.928;2024-02-23T05:38:00;2.90;;;0.50;;
5343;SDS011;2694;48.954;8.928;2024-02-23T05:40:27;1.13;;;0.32;;
5343;SDS011;2694;48.954;8.928;2024-02-23T05:42:54;1.50;;;0.50;;
5343;SDS011;2694;48.954;8.928;2024-02-23T05:45:21;3.50;;;0.70;;
5343;SDS011;2694;48.954;8.928;2024-02-23T05:47:48;1.95;;;0.43;;
5343;SDS011;2694;48.954;8.928;2024-02-23T05:50:16;1.38;;;0.30;;
5343;SDS011;2694;48.954;8.928;2024-02-23T05:52:43;1.30;;;0.30;;
5343;SDS011;2694;48.954;8.928;2024-02-23T05:55:10;2.90;;;0.50;;
5343;SDS011;2694;48.954;8.928;2024-02-23T05:57:36;4.15;;;1.13;;
5343;SDS011;2694;48.954;8.928;2024-02-23T06:00:04;3.70;;;0.90;;
5343;SDS011;2694;48.954;8.928;2024-02-23T06:02:32;2.70;;;0.50;;
5343;SDS011;2694;48.954;8.928;2024-02-23T06:04:59;2.20;;;0.60;;
5343;SDS011;2694;48.954;8.928;2024-02-23T06:07:27;3.17;;;0.60;;
5343;SDS011;2694;48.954;8.928;2024-02-23T06:09:55;4.50;;;0.70;;
5343;SDS011;2694;48.954;8.928;2024-02-23T06:12:22;3.50;;;0.50;;
5343;SDS011;2694;48.954;8.928;2024-02-23T06:14:48;2.40;;;0.60;;
5343;SDS011;2694;48.954;8.928;2024-02-23T06:17:16;4.68;;;0.88;;
5343;SDS011;2694;48.954;8.928;2024-02-23T06:19:43;2.45;;;0.80;;
5343;SDS011;2694;48.954;8.928;2024-02-23T06:22:10;4.70;;;0.80;;
5343;SDS011;2694;48.954;8.928;2024-02-23T06:24:38;3.13;;;0.80;;
5343;SDS011;2694;48.954;8.928;2024-02-23T06:27:05;4.50;;;0.60;;
5343;SDS011;2694;48.954;8.928;2024-02-23T06:29:33;3.40;;;0.73;;
5343;SDS011;2694;48.954;8.928;2024-02-23T06:32:00;2.90;;;0.57;;
5343;SDS011;2694;48.954;8.928;2024-02-23T06:34:28;2.58;;;0.57;;
5343;SDS011;2694;48.954;8.928;2024-02-23T06:36:55;2.38;;;0.50;;
5343;SDS011;2694;48.954;8.928;2024-02-23T06:39:21;1.65;;;0.65;;
5343;SDS011;2694;48.954;8.928;2024-02-23T06:41:50;1.67;;;0.60;;
5343;SDS011;2694;48.954;8.928;2024-02-23T06:44:16;5.32;;;0.50;;
5343;SDS011;2694;48.954;8.928;2024-02-23T06:46:43;2.13;;;0.32;;
5343;SDS011;2694;48.954;8.928;2024-02-23T06:49:10;1.52;;;0.50;;
5343;SDS011;2694;48.954;8.928;2024-02-23T06:51:37;2.40;;;0.28;;
5343;SDS011;2694;48.954;8.928;2024-02-23T06:54:05;1.90;;;0.55;;
5343;SDS011;2694;48.954;8.928;2024-02-23T06:56:33;5.03;;;0.70;;
5343;SDS011;2694;48.954;8.928;2024-02-23T06:59:02;4.70;;;0.80;;
5343;SDS011;2694;48.954;8.928;2024-02-23T07:01:29;2.70;;;0.40;;
5343;SDS011;2694;48.954;8.928;2024-02-23T07:03:56;3.38;;;0.55;;
5343;SDS011;2694;48.954;8.928;2024-02-23T07:06:23;2.85;;;0.50;;
5343;SDS011;2694;48.954;8.928;2024-02-23T07:08:50;3.40;;;0.65;;
5343;SDS011;2694;48.954;8.928;2024-02-23T07:11:17;3.08;;;0.80;;
5343;SDS011;2694;48.954;8.928;2024-02-23T07:13:44;10.38;;;3.08;;
5343;SDS011;2694;48.954;8.928;2024-02-23T07:16:12;3.42;;;0.80;;
5343;SDS011;2694;48.954;8.928;2024-02-23T07:18:40;4.90;;;0.75;;
5343;SDS011;2694;48.954;8.928;2024-02-23T07:21:07;6.57;;;0.67;;
5343;SDS011;2694;48.954;8.928;2024-02-23T07:23:34;8.20;;;0.60;;
5343;SDS011;2694;48.954;8.928;2024-02-23T07:26:01;5.03;;;0.70;;
5343;SDS011;2694;48.954;8.928;2024-02-23T07:28:28;5.47;;;1.60;;
5343;SDS011;2694;48.954;8.928;2024-02-23T07:30:55;9.75;;;3.50;;
5343;SDS011;2694;48.954;8.928;2024-02-23T07:33:23;11.85;;;2.78;;
5343;SDS011;2694;48.954;8.928;2024-02-23T07:35:50;8.65;;;3.28;;
5343;SDS011;2694;48.954;8.928;2024-02-23T07:38:16;15.10;;;3.95;;
5343;SDS011;2694;48.954;8.928;2024-02-23T07:40:44;16.08;;;5.07;;
5343;SDS011;2694;48.954;8.928;2024-02-23T07:43:11;18.67;;;6.03;;
5343;SDS011;2694;48.954;8.928;2024-02-23T07:45:38;12.10;;;3.70;;
5343;SDS011;2694;48.954;8.928;2024-02-23T07:48:05;7.82;;;2.40;;
5343;SDS011;2694;48.954;8.928;2024-02-23T07:50:35;5.32;;;1.80;;
5343;SDS011;2694;48.954;8.928;2024-02-23T07:53:02;3.55;;;1.30;;
5343;SDS011;2694;48.954;8.928;2024-02-23T07:55:29;2.58;;;0.70;;
5343;SDS011;2694;48.954;8.928;2024-02-23T07:57:56;4.43;;;0.70;;
5343;SDS011;2694;48.954;8.928;2024-02-23T08:00:26;3.88;;;1.00;;
5343;SDS011;2694;48.954;8.928;2024-02-23T08:02:53;3.55;;;0.60;;
5343;SDS011;2694;48.954;8.928;2024-02-23T08:05:21;3.28;;;0.60;;
5343;SDS011;2694;48.954;8.928;2024-02-23T08:07:49;2.35;;;0.70;;
5343;SDS011;2694;48.954;8.928;2024-02-23T08:10:16;2.78;;;0.88;;
5343;SDS011;2694;48.954;8.928;2024-02-23T08:12:43;11.95;;;2.17;;
5343;SDS011;2694;48.954;8.928;2024-02-23T08:15:10;11.10;;;1.95;;
5343;SDS011;2694;48.954;8.928;2024-02-23T08:17:37;4.60;;;1.10;;
5343;SDS011;2694;48.954;8.928;2024-02-23T08:20:04;4.22;;;0.90;;
5343;SDS011;2694;48.954;8.928;2024-02-23T08:22:32;4.15;;;0.85;;
5343;SDS011;2694;48.954;8.928;2024-02-23T08:25:00;9.98;;;1.10;;
5343;SDS011;2694;48.954;8.928;2024-02-23T08:27:27;3.90;;;0.60;;
5343;SDS011;2694;48.954;8.928;2024-02-23T08:29:54;3.33;;;0.60;;
5343;SDS011;2694;48.954;8.928;2024-02-23T08:32:21;0.90;;;0.40;;
5343;SDS011;2694;48.954;8.928;2024-02-23T08:34:48;2.25;;;0.50;;
5343;SDS011;2694;48.954;8.928;2024-02-23T08:37:15;1.67;;;0.63;;
5343;SDS011;2694;48.954;8.928;2024-02-23T08:39:42;2.20;;;0.50;;
5343;SDS011;2694;48.954;8.928;2024-02-23T08:42:10;5.43;;;0.68;;
5343;SDS011;2694;48.954;8.928;2024-02-23T08:44:37;3.05;;;0.60;;
5343;SDS011;2694;48.954;8.928;2024-02-23T08:47:05;4.95;;;0.80;;
5343;SDS011;2694;48.954;8.928;2024-02-23T08:49:32;5.22;;;1.05;;
5343;SDS011;2694;48.954;8.928;2024-02-23T08:51:59;3.92;;;1.50;;
5343;SDS011;2694;48.954;8.928;2024-02-23T08:54:27;7.75;;;1.20;;
5343;SDS011;2694;48.954;8.928;2024-02-23T08:56:54;4.00;;;1.00;;
5343;SDS011;2694;48.954;8.928;2024-02-23T08:59:22;6.10;;;1.20;;
5343;SDS011;2694;48.954;8.928;2024-02-23T09:01:49;1.60;;;0.70;;
5343;SDS011;2694;48.954;8.928;2024-02-23T09:04:16;2.80;;;0.70;;
5343;SDS011;2694;48.954;8.928;2024-02-23T09:06:43;2.10;;;0.70;;
5343;SDS011;2694;48.954;8.928;2024-02-23T09:09:10;5.90;;;0.88;;
5343;SDS011;2694;48.954;8.928;2024-02-23T09:11:37;4.22;;;0.60;;
5343;SDS011;2694;48.954;8.928;2024-02-23T09:14:04;5.80;;;1.20;;
5343;SDS011;2694;48.954;8.928;2024-02-23T09:16:32;3.00;;;0.70;;
5343;SDS011;2694;48.954;8.928;2024-02-23T09:18:59;2.50;;;0.45;;
5343;SDS011;2694;48.954;8.928;2024-02-23T09:21:26;5.93;;;1.10;;
5343;SDS011;2694;48.954;8.928;2024-02-23T09:23:53;2.90;;;1.42;;
5343;SDS011;2694;48.954;8.928;2024-02-23T09:26:20;3.30;;;1.00;;
5343;SDS011;2694;48.954;8.928;2024-02-23T09:28:46;2.83;;;0.40;;
5343;SDS011;2694;48.954;8.928;2024-02-23T09:31:13;3.60;;;0.77;;
5343;SDS011;2694;48.954;8.928;2024-02-23T09:33:42;2.05;;;0.50;;
5343;SDS011;2694;48.954;8.928;2024-02-23T09:36:11;3.78;;;0.60;;
5343;SDS011;2694;48.954;8.928;2024-02-23T09:38:37;6.40;;;0.70;;
5343;SDS011;2694;48.954;8.928;2024-02-23T09:41:04;7.10;;;0.70;;
5343;SDS011;2694;48.954;8.928;2024-02-23T09:43:34;7.13;;;1.20;;
5343;SDS011;2694;48.954;8.928;2024-02-23T09:46:01;3.50;;;0.60;;
5343;SDS011;2694;48.954;8.928;2024-02-23T09:48:28;6.30;;;0.70;;
5343;SDS011;2694;48.954;8.928;2024-02-23T09:51:00;3.00;;;0.50;;
5343;SDS011;2694;48.954;8.928;2024-02-23T09:53:27;1.10;;;0.30;;
5343;SDS011;2694;48.954;8.928;2024-02-23T09:55:54;5.97;;;0.70;;
5343;SDS011;2694;48.954;8.928;2024-02-23T09:58:23;1.90;;;0.60;;
5343;SDS011;2694;48.954;8.928;2024-02-23T10:00:51;2.72;;;0.50;;
5343;SDS011;2694;48.954;8.928;2024-02-23T10:03:19;2.90;;;1.00;;
5343;SDS011;2694;48.954;8.928;2024-02-23T10:05:51;5.03;;;0.60;;
5343;SDS011;2694;48.954;8.928;2024-02-23T10:08:19;2.33;;;0.50;;
5343;SDS011;2694;48.954;8.928;2024-02-23T10:10:46;6.93;;;0.90;;
5343;SDS011;2694;48.954;8.928;2024-02-23T10:13:17;4.03;;;0.70;;
5343;SDS011;2694;48.954;8.928;2024-02-23T10:15:45;5.73;;;0.90;;
5343;SDS011;2694;48.954;8.928;2024-02-23T10:18:12;3.95;;;0.90;;
5343;SDS011;2694;48.954;8.928;2024-02-23T10:20:40;3.10;;;0.60;;
5343;SDS011;2694;48.954;8.928;2024-02-23T10:23:07;1.80;;;0.60;;
5343;SDS011;2694;48.954;8.928;2024-02-23T10:25:36;7.13;;;0.70;;
5343;SDS011;2694;48.954;8.928;2024-02-23T10:28:03;4.90;;;0.50;;
5343;SDS011;2694;48.954;8.928;2024-02-23T10:30:31;8.50;;;1.10;;
5343;SDS011;2694;48.954;8.928;2024-02-23T10:32:58;2.17;;;0.80;;
5343;SDS011;2694;48.954;8.928;2024-02-23T10:35:25;5.03;;;1.17;;
5343;SDS011;2694;48.954;8.928;2024-02-23T10:37:53;4.88;;;1.10;;
5343;SDS011;2694;48.954;8.928;2024-02-23T10:40:21;4.38;;;1.02;;
5343;SDS011;2694;48.954;8.928;2024-02-23T10:42:50;3.50;;;0.98;;
5343;SDS011;2694;48.954;8.928;2024-02-23T10:45:22;5.50;;;0.93;;
5343;SDS011;2694;48.954;8.928;2024-02-23T10:47:50;5.70;;;0.80;;
5343;SDS011;2694;48.954;8.928;2024-02-23T10:50:17;4.40;;;0.67;;
5343;SDS011;2694;48.954;8.928;2024-02-23T10:52:45;4.00;;;0.65;;
5343;SDS011;2694;48.954;8.928;2024-02-23T10:55:13;3.65;;;0.50;;
5343;SDS011;2694;48.954;8.928;2024-02-23T10:57:41;5.15;;;1.08;;
5343;SDS011;2694;48.954;8.928;2024-02-23T11:00:12;7.50;;;0.90;;
5343;SDS011;2694;48.954;8.928;2024-02-23T11:02:43;4.68;;;0.98;;
5343;SDS011;2694;48.954;8.928;2024-02-23T11:05:12;3.33;;;0.60;;
5343;SDS011;2694;48.954;8.928;2024-02-23T11:07:41;8.18;;;0.90;;
5343;SDS011;2694;48.954;8.928;2024-02-23T11:10:09;6.33;;;1.00;;
5343;SDS011;2694;48.954;8.928;2024-02-23T11:12:39;7.90;;;1.10;;
5343;SDS011;2694;48.954;8.928;2024-02-23T11:15:06;3.30;;;0.50;;
5343;SDS011;2694;48.954;8.928;2024-02-23T11:17:36;5.13;;;0.70;;
5343;SDS011;2694;48.954;8.928;2024-02-23T11:20:03;7.13;;;0.70;;
5343;SDS011;2694;48.954;8.928;2024-02-23T11:22:34;4.15;;;0.70;;
5343;SDS011;2694;48.954;8.928;2024-02-23T11:25:03;2.60;;;0.70;;
5343;SDS011;2694;48.954;8.928;2024-02-23T11:27:31;3.60;;;0.70;;
5343;SDS011;2694;48.954;8.928;2024-02-23T11:29:59;6.95;;;0.57;;
5343;SDS011;2694;48.954;8.928;2024-02-23T11:32:36;5.40;;;1.67;;
5343;SDS011;2694;48.954;8.928;2024-02-23T11:35:05;3.67;;;1.25;;
5343;SDS011;2694;48.954;8.928;2024-02-23T11:37:43;7.10;;;1.00;;
5343;SDS011;2694;48.954;8.928;2024-02-23T11:40:12;7.82;;;1.20;;
5343;SDS011;2694;48.954;8.928;2024-02-23T11:42:39;4.43;;;0.77;;
5343;SDS011;2694;48.954;8.928;2024-02-23T11:45:08;3.13;;;0.60;;
5343;SDS011;2694;48.954;8.928;2024-02-23T11:47:37;4.95;;;1.00;;
5343;SDS011;2694;48.954;8.928;2024-02-23T11:50:05;3.97;;;0.75;;
5343;SDS011;2694;48.954;8.928;2024-02-23T11:52:34;5.38;;;0.90;;
5343;SDS011;2694;48.954;8.928;2024-02-23T11:55:01;3.80;;;0.70;;
5343;SDS011;2694;48.954;8.928;2024-02-23T11:57:30;3.07;;;0.70;;
5343;SDS011;2694;48.954;8.928;2024-02-23T11:59:57;4.75;;;0.90;;
5343;SDS011;2694;48.954;8.928;2024-02-23T12:02:24;2.72;;;0.43;;
5343;SDS011;2694;48.954;8.928;2024-02-23T12:04:52;3.53;;;0.90;;
5343;SDS011;2694;48.954;8.928;2024-02-23T12:07:19;4.07;;;0.90;;
5343;SDS011;2694;48.954;8.928;2024-02-23T12:09:46;6.18;;;1.00;;
5343;SDS011;2694;48.954;8.928;2024-02-23T12:12:13;5.10;;;0.80;;
5343;SDS011;2694;48.954;8.928;2024-02-23T12:14:40;6.17;;;1.10;;
5343;SDS011;2694;48.954;8.928;2024-02-23T12:17:07;5.65;;;0.90;;
5343;SDS011;2694;48.954;8.928;2024-02-23T12:19:37;4.93;;;0.50;;
5343;SDS011;2694;48.954;8.928;2024-02-23T12:22:06;4.47;;;0.80;;
5343;SDS011;2694;48.954;8.928;2024-02-23T12:24:33;4.57;;;0.80;;
5343;SDS011;2694;48.954;8.928;2024-02-23T12:27:01;6.65;;;1.30;;
5343;SDS011;2694;48.954;8.928;2024-02-23T12:29:30;5.95;;;0.85;;
5343;SDS011;2694;48.954;8.928;2024-02-23T12:32:03;3.45;;;0.70;;
5343;SDS011;2694;48.954;8.928;2024-02-23T12:34:30;1.92;;;0.50;;
5343;SDS011;2694;48.954;8.928;2024-02-23T12:36:57;3.38;;;0.60;;
5343;SDS011;2694;48.954;8.928;2024-02-23T12:39:25;5.25;;;0.90;;
5343;SDS011;2694;48.954;8.928;2024-02-23T12:41:52;1.90;;;0.50;;
5343;SDS011;2694;48.954;8.928;2024-02-23T12:44:22;6.57;;;0.80;;
5343;SDS011;2694;48.954;8.928;2024-02-23T12:46:48;4.95;;;1.00;;
5343;SDS011;2694;48.954;8.928;2024-02-23T12:49:15;2.17;;;0.70;;
5343;SDS011;2694;48.954;8.928;2024-02-23T12:51:42;15.07;;;1.45;;
5343;SDS011;2694;48.954;8.928;2024-02-23T12:54:11;9.25;;;0.90;;
5343;SDS011;2694;48.954;8.928;2024-02-23T12:56:39;6.55;;;1.10;;
5343;SDS011;2694;48.954;8.928;2024-02-23T12:59:07;5.70;;;1.27;;
5343;SDS011;2694;48.954;8.928;2024-02-23T13:01:34;8.20;;;1.23;;
5343;SDS011;2694;48.954;8.928;2024-02-23T13:04:02;3.40;;;1.10;;
5343;SDS011;2694;48.954;8.928;2024-02-23T13:06:34;3.85;;;1.25;;
5343;SDS011;2694;48.954;8.928;2024-02-23T13:09:02;4.45;;;1.17;;
5343;SDS011;2694;48.954;8.928;2024-02-23T13:11:33;3.13;;;0.88;;
5343;SDS011;2694;48.954;8.928;2024-02-23T13:14:02;5.13;;;0.90;;
5343;SDS011;2694;48.954;8.928;2024-02-23T13:16:28;5.07;;;0.90;;
5343;SDS011;2694;48.954;8.928;2024-02-23T13:18:55;4.53;;;0.93;;
5343;SDS011;2694;48.954;8.928;2024-02-23T13:21:22;5.90;;;0.95;;
5343;SDS011;2694;48.954;8.928;2024-02-23T13:23:50;4.30;;;0.88;;
5343;SDS011;2694;48.954;8.928;2024-02-23T13:26:16;6.15;;;1.20;;
5343;SDS011;2694;48.954;8.928;2024-02-23T13:28:43;6.07;;;0.98;;
5343;SDS011;2694;48.954;8.928;2024-02-23T13:31:12;4.95;;;0.82;;
5343;SDS011;2694;48.954;8.928;2024-02-23T13:33:40;3.65;;;0.80;;
5343;SDS011;2694;48.954;8.928;2024-02-23T13:36:07;8.05;;;0.77;;
5343;SDS011;2694;48.954;8.928;2024-02-23T13:38:34;6.55;;;0.70;;
5343;SDS011;2694;48.954;8.928;2024-02-23T13:41:04;6.60;;;1.00;;
5343;SDS011;2694;48.954;8.928;2024-02-23T13:43:31;6.72;;;1.50;;
5343;SDS011;2694;48.954;8.928;2024-02-23T13:45:59;5.82;;;0.73;;
5343;SDS011;2694;48.954;8.928;2024-02-23T13:48:30;3.47;;;0.60;;
5343;SDS011;2694;48.954;8.928;2024-02-23T13:50:57;2.60;;;0.80;;
5343;SDS011;2694;48.954;8.928;2024-02-23T13:53:28;7.72;;;0.90;;
5343;SDS011;2694;48.954;8.928;2024-02-23T13:55:55;6.28;;;0.98;;
5343;SDS011;2694;48.954;8.928;2024-02-23T13:58:22;3.92;;;1.00;;
5343;SDS011;2694;48.954;8.928;2024-02-23T14:00:49;5.90;;;0.90;;
5343;SDS011;2694;48.954;8.928;2024-02-23T14:03:16;7.35;;;1.17;;
5343;SDS011;2694;48.954;8.928;2024-02-23T14:05:45;3.13;;;0.80;;
5343;SDS011;2694;48.954;8.928;2024-02-23T14:08:12;4.23;;;0.80;;
5343;SDS011;2694;48.954;8.928;2024-02-23T14:10:39;4.32;;;1.00;;
5343;SDS011;2694;48.954;8.928;2024-02-23T14:13:08;7.07;;;1.20;;
5343;SDS011;2694;48.954;8.928;2024-02-23T14:15:35;6.50;;;1.00;;
5343;SDS011;2694;48.954;8.928;2024-02-23T14:18:01;4.22;;;0.85;;
5343;SDS011;2694;48.954;8.928;2024-02-23T14:20:28;3.75;;;1.40;;
5343;SDS011;2694;48.954;8.928;2024-02-23T14:22:57;10.15;;;2.00;;
5343;SDS011;2694;48.954;8.928;2024-02-23T14:25:23;9.75;;;1.90;;
5343;SDS011;2694;48.954;8.928;2024-02-23T14:27:50;4.10;;;0.97;;
5343;SDS011;2694;48.954;8.928;2024-02-23T14:30:17;6.53;;;1.10;;
5343;SDS011;2694;48.954;8.928;2024-02-23T14:32:44;6.72;;;1.25;;
5343;SDS011;2694;48.954;8.928;2024-02-23T14:35:11;3.10;;;0.90;;
5343;SDS011;2694;48.954;8.928;2024-02-23T14:37:38;7.90;;;3.05;;
5343;SDS011;2694;48.954;8.928;2024-02-23T14:40:07;5.78;;;1.30;;
5343;SDS011;2694;48.954;8.928;2024-02-23T14:42:36;5.15;;;1.00;;
5343;SDS011;2694;48.954;8.928;2024-02-23T14:45:04;7.13;;;1.40;;
5343;SDS011;2694;48.954;8.928;2024-02-23T14:47:32;4.80;;;0.85;;
5343;SDS011;2694;48.954;8.928;2024-02-23T14:49:59;10.05;;;1.00;;
5343;SDS011;2694;48.954;8.928;2024-02-23T14:52:26;7.28;;;1.17;;
5343;SDS011;2694;48.954;8.928;2024-02-23T14:54:53;7.10;;;1.20;;
5343;SDS011;2694;48.954;8.928;2024-02-23T14:57:21;5.50;;;0.95;;
5343;SDS011;2694;48.954;8.928;2024-02-23T14:59:48;5.25;;;1.38;;
5343;SDS011;2694;48.954;8.928;2024-02-23T15:02:17;3.58;;;0.80;;
5343;SDS011;2694;48.954;8.928;2024-02-23T15:04:46;7.30;;;1.08;;
5343;SDS011;2694;48.954;8.928;2024-02-23T15:07:13;7.85;;;1.00;;
5343;SDS011;2694;48.954;8.928;2024-02-23T15:09:40;7.53;;;1.30;;
5343;SDS011;2694;48.954;8.928;2024-02-23T15:12:07;7.00;;;1.07;;
5343;SDS011;2694;48.954;8.928;2024-02-23T15:14:36;5.20;;;1.10;;
5343;SDS011;2694;48.954;8.928;2024-02-23T15:17:03;4.47;;;0.80;;